LFLC/CFE METAR and TAF weather

Enter ICAO airport designator
Station Type Date Time Source
LFLC METAR 2021/05/14 13:30 UTC NOAA

LFLC 141330Z AUTO 26012KT 230V290 9999 BKN066 17/00 Q1013 TEMPO FEW040TCU BKN050


Station Type Date Time Source
LFLC Decoded METAR 2021/05/14 13:30 UTC NOAA

Clermont-Ferrand, France (LFLC) 45-47N 003-10E 330M
May 14, 2021 - 09:30 AM EDT / 2021.05.14 1330 UTC
Wind: from the W (260 degrees) at 14 MPH (12 KT) (direction variable):0
Visibility: greater than 7 mile(s):0
Sky conditions: mostly cloudy
Weather: Towering cumulus clouds observed
Temperature: 62 F (17 C)
Dew Point: 32 F (0 C)
Relative Humidity: 31%
Pressure (altimeter): 29.91 in. Hg (1013 hPa)
ob: LFLC 141330Z AUTO 26012KT 230V290 9999 BKN066 17/00 Q1013 TEMPO FEW040TCU BKN050
cycle: 13

Station Type Date Time Source
LFLC TAF 2021/05/14 12:55 UTC NOAA

TAF LFLC 141100Z 1412/1512 29010KT 9999 SCT050 PROB40
TEMPO 1412/1418 FEW040TCU BKN050
BECMG 1421/1424 18010KT
BECMG 1502/1505 OVC050
TEMPO 1505/1512 RA BKN035

Example: see airport list